Time;durP1;ratioP1;P1;durP2;ratioP2;P2;SDS_P1;SDS_P2;PMS_P1;PMS_P2;Temp;Humidity;BMP_temperature;BMP_pressure;BME280_temperature;BME280_humidity;BME280_pressure;Samples;Min_cycle;Max_cycle;Signal;HPM_P1;HPM_P2
2022/03/13 08:03:56;;;;;;;17.10;10.40;;;9.10;1.00;;;;;;4868073;22;21058;31
2022/03/13 08:06:23;;;;;;;13.37;10.43;;;9.20;1.00;;;;;;5027187;28;20649;-76
2022/03/13 08:08:49;;;;;;;13.57;9.70;;;9.30;1.00;;;;;;5014902;28;20247;-76
2022/03/13 08:11:15;;;;;;;14.57;9.77;;;9.60;1.00;;;;;;5013094;28;20230;-76
2022/03/13 08:13:41;;;;;;;14.23;9.90;;;9.70;1.00;;;;;;5029811;28;20192;-77
2022/03/13 08:16:07;;;;;;;16.53;10.50;;;9.90;1.00;;;;;;5030193;28;20274;-76
2022/03/13 08:18:34;;;;;;;14.47;9.87;;;10.10;1.00;;;;;;5014954;28;20672;-76
2022/03/13 08:21:00;;;;;;;13.00;9.77;;;10.20;1.00;;;;;;5028868;28;20188;-76
2022/03/13 08:23:26;;;;;;;12.80;9.87;;;10.40;1.00;;;;;;5013436;28;20269;-76
2022/03/13 08:25:51;;;;;;;18.13;9.90;;;10.70;1.00;;;;;;5013677;28;20224;-77
2022/03/13 08:28:17;;;;;;;13.90;9.90;;;11.70;1.00;;;;;;5013510;28;20176;-76
2022/03/13 08:30:42;;;;;;;13.73;10.02;;;13.10;1.00;;;;;;5015293;28;20171;-76
2022/03/13 08:33:08;;;;;;;15.00;10.15;;;14.50;1.00;;;;;;5017434;28;20234;-76
2022/03/13 08:35:34;;;;;;;13.13;10.25;;;15.40;1.00;;;;;;5017664;28;20536;-72
2022/03/13 08:37:59;;;;;;;13.27;9.88;;;15.40;1.00;;;;;;5017373;28;20179;-72
2022/03/13 08:40:25;;;;;;;17.00;10.40;;;15.40;1.00;;;;;;5033534;28;20190;-76
2022/03/13 08:42:54;;;;;;;17.20;11.05;;;15.70;1.00;;;;;;5021307;28;20536;-76
2022/03/13 08:45:20;;;;;;;15.38;9.27;;;16.20;1.00;;;;;;5019855;28;20195;-76
2022/03/13 08:47:47;;;;;;;12.43;9.18;;;16.90;1.00;;;;;;5019418;28;20178;-76
2022/03/13 08:50:14;;;;;;;12.07;9.32;;;17.00;1.00;;;;;;5035361;28;20183;-76
2022/03/13 08:52:40;;;;;;;14.80;10.00;;;16.90;1.00;;;;;;5018527;28;20175;-76
2022/03/13 08:55:08;;;;;;;14.25;10.13;;;17.10;1.00;;;;;;5018505;28;20600;-76
2022/03/13 08:57:34;;;;;;;12.68;8.98;;;17.50;1.00;;;;;;5018173;28;20198;-76
2022/03/13 09:00:00;;;;;;;11.73;9.40;;;18.00;1.00;;;;;;5018075;28;20255;-73
2022/03/13 09:02:26;;;;;;;15.98;10.45;;;18.60;1.00;;;;;;5016786;28;20271;-72
2022/03/13 09:04:52;;;;;;;14.02;9.85;;;19.00;1.00;;;;;;5020132;28;20203;-72
2022/03/13 09:07:18;;;;;;;14.73;10.50;;;18.40;1.00;;;;;;5036681;28;20164;-71
2022/03/13 09:09:44;;;;;;;15.13;10.00;;;17.30;1.00;;;;;;5018940;28;20175;-71
2022/03/13 09:12:10;;;;;;;13.52;9.93;;;16.80;1.00;;;;;;5019127;28;20179;-72
2022/03/13 09:14:38;;;;;;;14.95;10.65;;;16.00;1.00;;;;;;5035914;28;20223;-72
2022/03/13 09:17:04;;;;;;;14.38;10.65;;;15.00;1.00;;;;;;5018329;28;20190;-72
2022/03/13 09:19:29;;;;;;;15.82;10.73;;;14.10;1.00;;;;;;5036084;28;20576;-72
2022/03/13 09:21:55;;;;;;;17.40;11.07;;;14.10;1.00;;;;;;5036320;28;20194;-72
2022/03/13 09:24:21;;;;;;;16.08;11.02;;;14.10;1.00;;;;;;5018865;28;20227;-79
2022/03/13 09:26:47;;;;;;;16.75;10.75;;;14.20;1.00;;;;;;5019873;28;20265;-78
2022/03/13 09:29:13;;;;;;;17.77;11.20;;;14.50;1.00;;;;;;5037579;28;20175;-78
2022/03/13 09:31:40;;;;;;;15.93;10.30;;;14.70;1.00;;;;;;5038709;28;20205;-78
2022/03/13 09:34:05;;;;;;;15.07;11.25;;;14.70;1.00;;;;;;5020557;28;20676;-78
2022/03/13 09:36:36;;;;;;;16.42;11.98;;;14.90;1.00;;;;;;5037580;28;20167;-80
2022/03/13 09:39:03;;;;;;;16.25;11.70;;;14.70;1.00;;;;;;5037209;28;20250;-80
2022/03/13 09:41:28;;;;;;;17.17;11.38;;;14.50;1.00;;;;;;5019254;28;20199;-79
2022/03/13 09:43:54;;;;;;;17.02;11.32;;;14.50;1.00;;;;;;5037027;28;20245;-78
2022/03/13 09:46:20;;;;;;;15.68;11.48;;;14.40;1.00;;;;;;5021142;28;20175;-78
2022/03/13 09:48:46;;;;;;;16.38;11.45;;;14.30;1.00;;;;;;5037683;28;20175;-80
2022/03/13 09:51:12;;;;;;;13.85;10.60;;;14.20;1.00;;;;;;5019303;28;20197;-78
2022/03/13 09:53:38;;;;;;;19.60;11.60;;;14.20;1.00;;;;;;5036241;28;20257;-75
2022/03/13 09:56:05;;;;;;;16.15;11.02;;;14.20;1.00;;;;;;5035141;28;20256;-75
2022/03/13 09:58:32;;;;;;;16.00;11.35;;;14.20;1.00;;;;;;5036917;28;20170;-78
2022/03/13 10:00:59;;;;;;;16.33;11.60;;;14.10;1.00;;;;;;5036820;28;20186;-78
2022/03/13 10:03:24;;;;;;;16.42;10.95;;;14.20;1.00;;;;;;5039844;28;20195;-78
2022/03/13 10:05:53;;;;;;;18.23;11.57;;;14.20;1.00;;;;;;5020950;28;20729;-78
2022/03/13 10:08:18;;;;;;;15.20;11.38;;;14.30;1.00;;;;;;5018667;28;20186;-80
2022/03/13 10:10:49;;;;;;;17.13;11.15;;;14.30;1.00;;;;;;5018819;28;20172;-79
2022/03/13 10:13:36;;;;;;;16.63;11.52;;;14.30;1.00;;;;;;5019847;28;20179;-79
2022/03/13 10:16:04;;;;;;;18.65;11.07;;;14.30;1.00;;;;;;5021753;28;20203;-78
2022/03/13 10:18:30;;;;;;;15.90;11.65;;;14.40;1.00;;;;;;5017717;28;20592;-76
2022/03/13 10:20:56;;;;;;;16.50;11.38;;;14.30;1.00;;;;;;5033895;28;20302;-77
2022/03/13 10:23:22;;;;;;;16.98;10.95;;;14.30;1.00;;;;;;5035981;28;20191;-77
2022/03/13 10:25:50;;;;;;;17.15;11.55;;;14.40;1.00;;;;;;5035155;28;20237;-78
2022/03/13 10:28:21;;;;;;;15.75;10.93;;;14.60;1.00;;;;;;5016556;28;20205;-78
2022/03/13 10:31:05;;;;;;;17.42;11.30;;;14.80;1.00;;;;;;5034523;28;20166;-78
2022/03/13 10:33:43;;;;;;;17.60;11.63;;;14.90;1.00;;;;;;5016982;28;20197;-77
2022/03/13 10:36:41;;;;;;;15.73;11.07;;;15.00;1.00;;;;;;5016559;28;20206;-77
2022/03/13 10:39:17;;;;;;;19.35;11.65;;;15.10;1.00;;;;;;5016705;28;20186;-76
2022/03/13 10:41:47;;;;;;;15.15;10.43;;;15.00;1.00;;;;;;5034485;28;20652;-78
2022/03/13 10:44:17;;;;;;;14.52;11.13;;;15.10;1.00;;;;;;5034301;28;20187;-77
2022/03/13 10:46:44;;;;;;;15.65;10.30;;;15.10;1.00;;;;;;5016589;28;20241;-77
2022/03/13 10:49:10;;;;;;;17.50;11.38;;;15.00;1.00;;;;;;5034522;28;20309;-77
2022/03/13 10:51:45;;;;;;;16.08;11.23;;;15.00;1.00;;;;;;5016422;28;20224;-76
2022/03/13 10:54:37;;;;;;;19.50;11.10;;;15.10;1.00;;;;;;5015343;28;20726;-76
2022/03/13 10:57:13;;;;;;;17.40;11.95;;;15.30;1.00;;;;;;5032754;28;20185;-76
2022/03/13 10:59:43;;;;;;;16.58;11.27;;;15.50;1.00;;;;;;5016375;28;20205;-76
2022/03/13 11:02:14;;;;;;;16.80;11.85;;;15.80;1.00;;;;;;5034442;28;20278;-78
2022/03/13 11:04:46;;;;;;;16.60;10.80;;;15.90;1.00;;;;;;5033987;28;20217;-77
2022/03/13 11:07:12;;;;;;;17.70;11.57;;;16.20;1.00;;;;;;5016319;28;20226;-77
2022/03/13 11:09:38;;;;;;;17.80;11.77;;;16.30;1.00;;;;;;5032694;28;20171;-77
2022/03/13 11:12:09;;;;;;;15.45;10.70;;;16.40;1.00;;;;;;5033889;28;20199;-77
2022/03/13 11:14:35;;;;;;;15.75;10.95;;;16.40;1.00;;;;;;5016165;28;20253;-76
2022/03/13 11:17:02;;;;;;;13.90;10.65;;;16.30;1.00;;;;;;5015971;28;20187;-75
2022/03/13 11:19:30;;;;;;;14.18;10.70;;;16.30;1.00;;;;;;5015818;28;20179;-75
2022/03/13 11:21:55;;;;;;;14.73;10.90;;;16.40;1.00;;;;;;5033470;28;20732;-75
2022/03/13 11:24:23;;;;;;;15.45;11.00;;;16.40;1.00;;;;;;5033682;28;20234;-76
2022/03/13 11:26:51;;;;;;;14.65;10.98;;;16.40;1.00;;;;;;5033546;28;20224;-75
2022/03/13 11:29:44;;;;;;;17.05;11.00;;;16.50;1.00;;;;;;5015818;28;20182;-75
2022/03/13 11:32:29;;;;;;;15.45;10.07;;;16.80;1.00;;;;;;5032237;28;20175;-75
2022/03/13 11:35:10;;;;;;;14.35;10.35;;;17.00;1.00;;;;;;5015615;28;20195;-76
2022/03/13 11:37:36;;;;;;;15.40;10.65;;;17.30;1.00;;;;;;5033834;28;20186;-76
2022/03/13 11:40:05;;;;;;;18.73;10.65;;;17.50;1.00;;;;;;5033411;28;20253;-75
2022/03/13 11:42:51;;;;;;;15.32;9.80;;;17.40;1.00;;;;;;5033085;28;20187;-75
2022/03/13 11:45:35;;;;;;;15.63;10.77;;;17.60;1.00;;;;;;5032417;28;20202;-75
2022/03/13 11:48:19;;;;;;;14.10;10.65;;;17.60;1.00;;;;;;5034460;28;20520;-75
2022/03/13 11:50:54;;;;;;;20.27;9.80;;;17.70;1.00;;;;;;5034201;28;20625;-75
2022/03/13 11:53:42;;;;;;;12.38;9.55;;;17.70;1.00;;;;;;5033585;28;20218;-75
2022/03/13 11:56:10;;;;;;;13.80;9.60;;;17.90;1.00;;;;;;5015283;28;20195;-76
2022/03/13 11:58:42;;;;;;;14.77;10.57;;;18.00;1.00;;;;;;5033301;28;20175;-75
2022/03/13 12:01:11;;;;;;;13.38;9.73;;;18.40;1.00;;;;;;5015492;28;20179;-75
2022/03/13 12:03:39;;;;;;;14.85;10.27;;;18.80;1.00;;;;;;5015397;28;20203;-75
2022/03/13 12:06:05;;;;;;;14.18;9.93;;;18.90;1.00;;;;;;5034369;28;20680;-75
2022/03/13 12:09:07;;;;;;;14.48;9.45;;;19.10;1.00;;;;;;5037007;28;20175;-76
2022/03/13 12:11:39;;;;;;;14.93;10.13;;;19.20;1.00;;;;;;5019198;28;20262;-75
2022/03/13 12:14:09;;;;;;;12.82;9.13;;;19.40;1.00;;;;;;5037025;28;20250;-76
2022/03/13 12:16:36;;;;;;;16.35;10.35;;;19.50;1.00;;;;;;5019182;28;20176;-75
2022/03/13 12:19:02;;;;;;;13.55;8.95;;;19.70;1.00;;;;;;5036855;28;20198;-75
2022/03/13 12:21:29;;;;;;;13.35;9.02;;;19.70;1.00;;;;;;5036706;28;20171;-75
2022/03/13 12:23:58;;;;;;;13.82;9.32;;;19.90;1.00;;;;;;5035502;28;20175;-76
2022/03/13 12:26:38;;;;;;;15.10;9.38;;;19.70;1.00;;;;;;5036821;28;20179;-76
2022/03/13 12:29:04;;;;;;;13.20;9.40;;;19.60;1.00;;;;;;5037346;28;20230;-76
2022/03/13 12:31:39;;;;;;;12.60;8.75;;;19.60;1.00;;;;;;5018856;28;20717;-76
2022/03/13 12:34:05;;;;;;;16.20;9.23;;;19.70;1.00;;;;;;5036659;28;20614;-76
2022/03/13 12:36:38;;;;;;;14.13;8.25;;;19.60;1.00;;;;;;5036733;28;20271;-76
2022/03/13 12:39:14;;;;;;;13.20;8.43;;;19.90;1.00;;;;;;5036579;28;20321;-76
2022/03/13 12:41:43;;;;;;;11.82;8.07;;;20.30;1.00;;;;;;5018921;28;20171;-75
2022/03/13 12:44:12;;;;;;;10.50;8.00;;;20.50;1.00;;;;;;5036564;28;20282;-76
2022/03/13 12:46:39;;;;;;;12.55;8.02;;;20.70;1.00;;;;;;5036841;28;20637;-76
2022/03/13 12:49:07;;;;;;;10.50;8.13;;;20.90;1.00;;;;;;5036980;28;20631;-76
2022/03/13 12:51:36;;;;;;;9.90;7.28;;;20.90;1.00;;;;;;5036549;28;20175;-76
2022/03/13 12:54:07;;;;;;;9.57;7.32;;;21.10;1.00;;;;;;5018434;28;20179;-77
2022/03/13 12:56:45;;;;;;;9.32;6.57;;;21.20;1.00;;;;;;5036419;28;20215;-76
2022/03/13 12:59:21;;;;;;;11.05;7.03;;;21.10;1.00;;;;;;5019790;28;20258;-76
2022/03/13 13:02:00;;;;;;;9.70;6.70;;;21.00;1.00;;;;;;5036895;28;20158;-76
2022/03/13 13:04:26;;;;;;;10.48;7.05;;;20.70;1.00;;;;;;5036281;28;20340;-76
2022/03/13 13:06:51;;;;;;;9.50;6.53;;;20.60;1.00;;;;;;5036024;28;20218;-76
2022/03/13 13:09:31;;;;;;;9.10;6.65;;;20.60;1.00;;;;;;5035886;28;20184;-76
2022/03/13 13:11:57;;;;;;;12.57;6.47;;;20.40;1.00;;;;;;5035821;28;20198;-76
2022/03/13 13:14:28;;;;;;;8.20;6.03;;;20.10;1.00;;;;;;5035766;28;20194;-76
2022/03/13 13:16:56;;;;;;;7.95;5.95;;;19.80;1.00;;;;;;5017385;28;20171;-76
2022/03/13 13:19:22;;;;;;;8.65;7.05;;;20.30;1.00;;;;;;5035357;28;20172;-76
2022/03/13 13:22:01;;;;;;;9.40;7.22;;;20.60;1.00;;;;;;5035574;28;20229;-76
2022/03/13 13:24:35;;;;;;;11.23;6.72;;;21.10;1.00;;;;;;5035526;28;20630;-76
2022/03/13 13:27:10;;;;;;;9.07;6.25;;;21.00;1.00;;;;;;5017756;28;20186;-76
2022/03/13 13:29:40;;;;;;;9.80;6.25;;;20.00;1.00;;;;;;5017722;28;20202;-75
2022/03/13 13:32:25;;;;;;;7.38;5.93;;;19.40;1.00;;;;;;5034257;28;20265;-75
2022/03/13 13:35:04;;;;;;;7.78;6.13;;;19.10;1.00;;;;;;5035456;28;20187;-76
2022/03/13 13:37:31;;;;;;;9.43;5.75;;;19.20;1.00;;;;;;5017659;28;20181;-76
2022/03/13 13:40:28;;;;;;;8.88;6.30;;;19.10;1.00;;;;;;5017655;28;20179;-75
2022/03/13 13:43:02;;;;;;;8.82;6.75;;;19.00;1.00;;;;;;5013403;28;20333;-75
2022/03/13 13:45:28;;;;;;;10.43;6.95;;;19.40;1.00;;;;;;5018864;28;20245;-76
2022/03/13 13:48:14;;;;;;;11.95;7.03;;;19.80;1.00;;;;;;5036021;28;20175;-76
2022/03/13 13:50:40;;;;;;;9.15;6.90;;;20.20;1.00;;;;;;5035833;28;20240;-76
2022/03/13 13:53:08;;;;;;;9.90;6.88;;;20.40;1.00;;;;;;5035270;28;20198;-76
2022/03/13 13:55:38;;;;;;;9.90;6.90;;;19.70;1.00;;;;;;5017232;28;20313;-76
2022/03/13 13:58:20;;;;;;;11.15;7.05;;;19.70;1.00;;;;;;5017718;28;20179;-76
2022/03/13 14:00:46;;;;;;;12.88;7.45;;;19.90;1.00;;;;;;5018245;28;20720;-76
2022/03/13 14:03:13;;;;;;;9.18;6.75;;;20.10;1.00;;;;;;5018137;28;20211;-76
2022/03/13 14:05:39;;;;;;;9.50;6.45;;;20.40;1.00;;;;;;5035798;28;20211;-76
2022/03/13 14:08:05;;;;;;;10.35;7.00;;;20.60;1.00;;;;;;5017533;28;20187;-76
2022/03/13 14:10:31;;;;;;;7.57;5.60;;;20.90;1.00;;;;;;5037721;28;20233;-76
2022/03/13 14:12:58;;;;;;;9.38;5.65;;;21.00;1.00;;;;;;5035400;28;20217;-76
2022/03/13 14:15:24;;;;;;;8.32;5.20;;;20.40;1.00;;;;;;5035018;28;20195;-76
2022/03/13 14:17:49;;;;;;;9.35;6.13;;;20.40;1.00;;;;;;5035378;28;20175;-76
2022/03/13 14:20:15;;;;;;;11.65;5.82;;;20.30;1.00;;;;;;5016799;28;20178;-76
2022/03/13 14:22:43;;;;;;;6.50;4.60;;;20.20;1.00;;;;;;5034520;28;20640;-76
2022/03/13 14:25:10;;;;;;;8.93;5.25;;;20.20;1.00;;;;;;5033165;28;20276;-76
2022/03/13 14:27:36;;;;;;;8.35;5.15;;;20.30;1.00;;;;;;5034362;28;20633;-76
2022/03/13 14:30:02;;;;;;;7.40;5.45;;;19.80;1.00;;;;;;5034200;28;20290;-76
2022/03/13 14:32:28;;;;;;;8.55;5.00;;;19.50;1.00;;;;;;5034231;28;20203;-76
2022/03/13 14:34:54;;;;;;;7.30;5.43;;;19.50;1.00;;;;;;5034234;28;20187;-76
2022/03/13 14:37:20;;;;;;;7.18;5.30;;;19.70;1.00;;;;;;5034546;28;20175;-76
2022/03/13 14:39:46;;;;;;;9.52;4.63;;;19.70;1.00;;;;;;5034569;28;20202;-76
2022/03/13 14:42:14;;;;;;;8.52;5.47;;;19.80;1.00;;;;;;5034145;28;20258;-75
2022/03/13 14:44:40;;;;;;;7.93;5.80;;;19.60;1.00;;;;;;5034072;28;20277;-76
2022/03/13 14:47:07;;;;;;;6.78;5.22;;;19.50;1.00;;;;;;5032912;28;20207;-76
2022/03/13 14:49:33;;;;;;;5.85;4.65;;;19.00;1.00;;;;;;5016340;28;20684;-76
2022/03/13 14:51:59;;;;;;;9.82;4.97;;;19.00;1.00;;;;;;5034069;28;20538;-76
2022/03/13 14:54:25;;;;;;;6.57;5.03;;;18.90;1.00;;;;;;5016451;28;20281;-76
2022/03/13 14:56:52;;;;;;;8.43;5.47;;;19.00;1.00;;;;;;5016247;28;20225;-76
2022/03/13 14:59:18;;;;;;;6.82;5.00;;;18.70;1.00;;;;;;5016108;28;20266;-76
2022/03/13 15:01:43;;;;;;;10.20;4.75;;;18.70;1.00;;;;;;5032734;28;20278;-76
2022/03/13 15:04:09;;;;;;;8.45;5.18;;;18.80;1.00;;;;;;5035198;28;20163;-79
2022/03/13 15:06:35;;;;;;;8.52;5.35;;;18.90;1.00;;;;;;5036039;28;20285;-79
2022/03/13 15:09:04;;;;;;;7.80;5.47;;;18.80;1.00;;;;;;5017634;28;20266;-76
2022/03/13 15:11:30;;;;;;;8.70;5.80;;;18.60;1.00;;;;;;5035091;28;20160;-79
2022/03/13 15:13:56;;;;;;;7.65;5.72;;;18.60;1.00;;;;;;5022163;28;20233;-77
2022/03/13 15:16:21;;;;;;;8.48;5.57;;;18.50;1.00;;;;;;5033451;28;20574;-78
2022/03/13 15:18:48;;;;;;;8.27;5.43;;;18.40;1.00;;;;;;5017579;28;20175;-79
2022/03/13 15:21:15;;;;;;;8.68;5.53;;;18.30;1.00;;;;;;5034738;28;20190;-77
2022/03/13 15:23:41;;;;;;;10.43;6.53;;;18.20;1.00;;;;;;5033032;28;20246;-78
2022/03/13 15:26:07;;;;;;;9.40;6.43;;;18.10;1.00;;;;;;5034409;28;20609;-76
2022/03/13 15:28:34;;;;;;;8.35;5.57;;;17.90;1.00;;;;;;5016066;28;20179;-76
2022/03/13 15:31:00;;;;;;;10.10;6.90;;;17.70;1.00;;;;;;5016236;28;20181;-76
2022/03/13 15:33:26;;;;;;;8.43;6.28;;;17.50;1.00;;;;;;5015751;28;20283;-76
2022/03/13 15:35:53;;;;;;;8.45;6.10;;;17.40;1.00;;;;;;5033916;28;20691;-77
2022/03/13 15:38:19;;;;;;;9.77;6.53;;;17.30;1.00;;;;;;5033661;28;20168;-77
2022/03/13 15:40:45;;;;;;;9.60;6.28;;;17.20;1.00;;;;;;5017409;28;20179;-76
2022/03/13 15:43:12;;;;;;;8.85;5.82;;;17.10;1.00;;;;;;5037931;28;20257;-76
2022/03/13 15:45:38;;;;;;;8.65;6.28;;;17.10;1.00;;;;;;5037780;28;20618;-77
2022/03/13 15:48:05;;;;;;;9.65;6.70;;;17.10;1.00;;;;;;5037907;28;20193;-77
2022/03/13 15:50:35;;;;;;;9.20;6.88;;;17.00;1.00;;;;;;5021262;28;20187;-76
2022/03/13 15:53:00;;;;;;;10.85;6.97;;;17.00;1.00;;;;;;5037281;28;20191;-76
2022/03/13 15:55:26;;;;;;;11.02;7.22;;;16.90;1.00;;;;;;5019992;28;20252;-76
2022/03/13 15:57:52;;;;;;;8.68;6.05;;;16.90;1.00;;;;;;5038246;28;20210;-76
2022/03/13 16:00:18;;;;;;;9.60;7.07;;;16.90;1.00;;;;;;5037826;28;20175;-76
2022/03/13 16:02:44;;;;;;;11.63;6.47;;;16.80;1.00;;;;;;5036257;28;20183;-76
2022/03/13 16:05:10;;;;;;;9.90;6.97;;;16.70;1.00;;;;;;5037511;28;20228;-76
2022/03/13 16:07:35;;;;;;;9.48;6.25;;;16.70;1.00;;;;;;5037808;28;20355;-76
2022/03/13 16:10:02;;;;;;;11.88;7.28;;;16.70;1.00;;;;;;5037783;28;20166;-76
2022/03/13 16:12:28;;;;;;;9.65;7.22;;;16.60;1.00;;;;;;5037207;28;20284;-76
2022/03/13 16:14:58;;;;;;;9.73;6.43;;;16.50;1.00;;;;;;5036764;28;20660;-76
2022/03/13 16:20:46;;;;;;;9.57;6.47;;;16.30;1.00;;;;;;5038069;28;20262;-80
2022/03/13 16:23:13;;;;;;;12.15;7.10;;;16.20;1.00;;;;;;5026061;28;20195;-81
2022/03/13 16:25:39;;;;;;;10.40;6.95;;;16.10;1.00;;;;;;5033485;28;20199;-79
2022/03/13 16:28:05;;;;;;;8.77;6.68;;;16.00;1.00;;;;;;5021706;28;20194;-79
2022/03/13 16:30:33;;;;;;;10.30;7.03;;;16.00;1.00;;;;;;5020556;28;20187;-79
2022/03/13 16:32:59;;;;;;;10.02;6.97;;;15.90;1.00;;;;;;5038662;28;20214;-79
2022/03/13 16:35:25;;;;;;;11.25;7.70;;;15.80;1.00;;;;;;5039386;28;20191;-76
2022/03/13 16:37:51;;;;;;;14.30;7.68;;;15.80;1.00;;;;;;5040329;28;20164;-76
2022/03/13 16:40:17;;;;;;;11.85;7.45;;;15.70;1.00;;;;;;5038275;28;20218;-75
2022/03/13 16:42:43;;;;;;;10.82;7.13;;;15.70;1.00;;;;;;5019272;28;20229;-74
2022/03/13 16:45:09;;;;;;;11.35;7.80;;;15.60;1.00;;;;;;5038154;28;20195;-79
2022/03/13 16:47:36;;;;;;;9.50;7.25;;;15.60;1.00;;;;;;5021428;28;20206;-79
2022/03/13 16:50:04;;;;;;;10.70;7.20;;;15.60;1.00;;;;;;5020666;28;20671;-79
2022/03/13 16:52:30;;;;;;;11.88;7.78;;;15.50;1.00;;;;;;5037425;28;20244;-78
2022/03/13 16:54:56;;;;;;;10.85;7.05;;;15.50;1.00;;;;;;5038792;28;20199;-78
2022/03/13 16:57:21;;;;;;;8.88;7.25;;;15.40;1.00;;;;;;5036639;28;20187;-78
2022/03/13 16:59:49;;;;;;;10.77;7.93;;;15.40;1.00;;;;;;5020801;28;20625;-78
2022/03/13 17:02:19;;;;;;;12.02;7.93;;;15.30;1.00;;;;;;5021444;28;20265;-79
2022/03/13 17:04:45;;;;;;;10.93;7.60;;;15.20;1.00;;;;;;5038923;28;20207;-78
2022/03/13 17:07:11;;;;;;;11.10;7.75;;;15.10;1.00;;;;;;5021169;28;20183;-78
2022/03/13 17:09:37;;;;;;;14.55;8.20;;;15.00;1.00;;;;;;5021892;28;20179;-78
2022/03/13 17:12:03;;;;;;;11.88;7.90;;;14.90;1.00;;;;;;5039276;28;20191;-79
2022/03/13 17:14:29;;;;;;;13.18;7.80;;;14.90;1.00;;;;;;5040172;28;20195;-78
2022/03/13 17:16:55;;;;;;;11.32;7.97;;;14.80;1.00;;;;;;5020465;28;20602;-78
2022/03/13 17:19:20;;;;;;;10.48;7.68;;;14.70;1.00;;;;;;5037295;28;20546;-79
2022/03/13 17:21:51;;;;;;;10.30;7.70;;;14.60;1.00;;;;;;5022222;28;20198;-79
2022/03/13 17:24:18;;;;;;;14.13;8.18;;;14.50;1.00;;;;;;5038070;28;20210;-78
2022/03/13 17:26:44;;;;;;;12.25;7.13;;;14.40;1.00;;;;;;5020696;28;20229;-78
2022/03/13 17:29:12;;;;;;;11.10;7.63;;;14.40;1.00;;;;;;5039178;28;20179;-79
2022/03/13 17:31:42;;;;;;;11.90;8.02;;;14.30;1.00;;;;;;5037149;28;20236;-79
2022/03/13 17:34:08;;;;;;;12.77;8.60;;;14.20;1.00;;;;;;5020336;28;20202;-78
2022/03/13 17:36:36;;;;;;;11.45;8.07;;;14.10;1.00;;;;;;5036667;28;20164;-78
2022/03/13 17:39:03;;;;;;;11.75;8.48;;;14.10;1.00;;;;;;5035934;28;20164;-78
2022/03/13 17:41:29;;;;;;;13.68;9.10;;;14.00;1.00;;;;;;5035949;28;20566;-79
2022/03/13 17:43:55;;;;;;;12.45;8.50;;;13.90;1.00;;;;;;5018016;28;20270;-78
2022/03/13 17:46:20;;;;;;;11.45;8.02;;;13.90;1.00;;;;;;5018752;28;20220;-78
2022/03/13 17:48:46;;;;;;;17.23;8.70;;;13.80;1.00;;;;;;5036399;28;20179;-78
2022/03/13 17:51:12;;;;;;;11.52;8.40;;;13.80;1.00;;;;;;5035824;28;20544;-78
2022/03/13 17:53:38;;;;;;;13.80;9.18;;;13.80;1.00;;;;;;5035425;28;20205;-79
2022/03/13 17:56:04;;;;;;;12.75;8.75;;;13.80;1.00;;;;;;5035721;28;20195;-79
2022/03/13 17:58:30;;;;;;;13.07;8.57;;;13.70;1.00;;;;;;5035879;28;20561;-79
2022/03/13 18:00:56;;;;;;;13.48;9.27;;;13.70;1.00;;;;;;5036678;28;20255;-78
2022/03/13 18:03:22;;;;;;;12.20;8.15;;;13.60;1.00;;;;;;5034974;28;20160;-77
2022/03/13 18:05:48;;;;;;;12.32;8.88;;;13.60;1.00;;;;;;5017663;28;20229;-77
2022/03/13 18:08:14;;;;;;;11.85;7.70;;;13.50;1.00;;;;;;5018192;28;20183;-77
2022/03/13 18:10:40;;;;;;;10.82;7.88;;;13.40;1.00;;;;;;5017445;28;20182;-77
2022/03/13 18:13:06;;;;;;;11.48;7.93;;;13.30;1.00;;;;;;5034890;28;20251;-77
2022/03/13 18:15:31;;;;;;;11.68;7.75;;;13.30;1.00;;;;;;5017046;28;20607;-77
2022/03/13 18:17:57;;;;;;;11.95;7.20;;;13.20;1.00;;;;;;5017446;28;20180;-83
2022/03/13 18:20:23;;;;;;;12.02;7.63;;;13.20;1.00;;;;;;5018081;28;20178;-83
2022/03/13 18:22:48;;;;;;;13.52;7.90;;;13.20;1.00;;;;;;5017905;28;20266;-81
2022/03/13 18:25:14;;;;;;;13.18;7.38;;;13.10;1.00;;;;;;5018337;28;20577;-79
2022/03/13 18:27:40;;;;;;;12.52;7.95;;;13.10;1.00;;;;;;5017781;28;20305;-77
2022/03/13 18:30:07;;;;;;;10.85;8.27;;;13.20;1.00;;;;;;5017058;28;20186;-77
2022/03/13 18:32:33;;;;;;;14.77;8.48;;;13.10;1.00;;;;;;5035414;28;20195;-79
2022/03/13 18:34:58;;;;;;;14.73;8.80;;;13.10;1.00;;;;;;5035886;28;20246;-81
2022/03/13 18:37:25;;;;;;;10.93;8.27;;;13.10;1.00;;;;;;5035650;28;20175;-79
2022/03/13 18:39:52;;;;;;;13.55;8.52;;;13.10;1.00;;;;;;5036360;28;20580;-79
2022/03/13 18:42:17;;;;;;;14.98;8.68;;;13.00;1.00;;;;;;5020171;28;20641;-80
2022/03/13 18:44:44;;;;;;;13.60;9.25;;;12.90;1.00;;;;;;5022610;28;20210;-80
2022/03/13 18:47:09;;;;;;;13.27;8.45;;;12.80;1.00;;;;;;5036506;28;20183;-80
2022/03/13 18:49:35;;;;;;;13.85;9.38;;;12.80;1.00;;;;;;5037928;28;20194;-79
2022/03/13 18:52:03;;;;;;;14.60;9.50;;;12.70;1.00;;;;;;5021168;28;20665;-79
2022/03/13 18:54:30;;;;;;;16.77;8.95;;;12.60;1.00;;;;;;5038830;28;20183;-79
2022/03/13 18:56:56;;;;;;;13.18;8.80;;;12.50;1.00;;;;;;5039771;28;20217;-80
2022/03/13 18:59:22;;;;;;;15.02;9.95;;;12.40;1.00;;;;;;5038040;28;20167;-80
2022/03/13 19:01:49;;;;;;;14.38;9.77;;;12.40;1.00;;;;;;5035829;28;20652;-80
2022/03/13 19:04:15;;;;;;;12.52;9.45;;;12.40;1.00;;;;;;5017676;28;20200;-80
2022/03/13 19:06:41;;;;;;;16.33;10.18;;;12.30;1.00;;;;;;5036633;28;20194;-79
2022/03/13 19:09:08;;;;;;;15.70;10.57;;;12.40;1.00;;;;;;5038776;28;20171;-81
2022/03/13 19:11:34;;;;;;;15.18;10.15;;;12.40;1.00;;;;;;5038372;28;20171;-80
2022/03/13 19:14:00;;;;;;;14.40;10.30;;;12.40;1.00;;;;;;5022711;28;20237;-79
2022/03/13 19:16:28;;;;;;;17.65;11.20;;;12.40;1.00;;;;;;5039705;28;20167;-79
2022/03/13 19:18:54;;;;;;;13.48;9.93;;;12.40;1.00;;;;;;5022386;28;20171;-79
2022/03/13 19:21:20;;;;;;;16.52;10.48;;;12.40;1.00;;;;;;5043352;28;20568;-80
2022/03/13 19:23:49;;;;;;;14.27;10.23;;;12.40;1.00;;;;;;5023477;28;20202;-79
2022/03/13 19:26:14;;;;;;;14.15;10.23;;;12.40;1.00;;;;;;5039721;28;20222;-78
2022/03/13 19:28:40;;;;;;;17.88;10.77;;;12.40;1.00;;;;;;5038365;28;20182;-79
2022/03/13 19:31:06;;;;;;;15.30;10.10;;;12.40;1.00;;;;;;5038127;28;20271;-78
2022/03/13 19:33:31;;;;;;;13.70;10.45;;;12.40;1.00;;;;;;5035772;28;20202;-75
2022/03/13 19:35:57;;;;;;;15.82;10.38;;;12.40;1.00;;;;;;5033833;28;20201;-75
2022/03/13 19:38:24;;;;;;;18.02;10.68;;;12.40;1.00;;;;;;5034252;28;20163;-74
2022/03/13 19:40:50;;;;;;;16.17;10.13;;;12.40;1.00;;;;;;5035402;28;20253;-76
2022/03/13 19:43:16;;;;;;;15.98;10.65;;;12.40;1.00;;;;;;5034740;28;20175;-77
2022/03/13 19:45:42;;;;;;;15.85;10.07;;;12.40;1.00;;;;;;5019942;28;20221;-77
2022/03/13 19:48:08;;;;;;;14.90;9.82;;;12.40;1.00;;;;;;5035441;28;20637;-73
2022/03/13 19:50:34;;;;;;;16.45;11.27;;;12.30;1.00;;;;;;5036580;28;20207;-77
2022/03/13 19:53:01;;;;;;;19.45;11.43;;;12.30;1.00;;;;;;5033930;28;20191;-77
2022/03/13 19:55:27;;;;;;;17.13;11.37;;;12.30;1.00;;;;;;5033946;28;20256;-78
2022/03/13 19:57:53;;;;;;;17.20;11.18;;;12.30;1.00;;;;;;5017458;28;20175;-78
2022/03/13 20:00:20;;;;;;;18.35;11.32;;;12.30;1.00;;;;;;5036035;28;20166;-76
2022/03/13 20:02:47;;;;;;;15.95;11.23;;;12.30;1.00;;;;;;5036000;28;20194;-76
2022/03/13 20:05:13;;;;;;;20.00;12.20;;;12.30;1.00;;;;;;5034914;28;20219;-77
2022/03/13 20:07:41;;;;;;;19.63;11.30;;;12.30;1.00;;;;;;5033764;28;20536;-76
2022/03/13 20:10:08;;;;;;;19.83;10.95;;;12.30;1.00;;;;;;5033551;28;20172;-76
2022/03/13 20:12:35;;;;;;;17.52;10.93;;;12.30;1.00;;;;;;5033818;28;20567;-77
2022/03/13 20:15:02;;;;;;;16.55;10.38;;;12.30;1.00;;;;;;5033572;28;20281;-77
2022/03/13 20:17:28;;;;;;;16.90;11.07;;;12.30;1.00;;;;;;5015882;28;20649;-78
2022/03/13 20:19:54;;;;;;;16.83;11.05;;;12.30;1.00;;;;;;5015846;28;20338;-78
2022/03/13 20:22:20;;;;;;;14.73;10.32;;;12.30;1.00;;;;;;5033543;28;20209;-78
2022/03/13 20:24:46;;;;;;;19.88;10.88;;;12.30;1.00;;;;;;5033615;28;20558;-77
2022/03/13 20:27:12;;;;;;;17.25;11.27;;;12.20;1.00;;;;;;5035188;28;20179;-77
2022/03/13 20:29:38;;;;;;;19.35;11.60;;;12.20;1.00;;;;;;5020277;28;20187;-78
2022/03/13 20:32:04;;;;;;;17.00;10.77;;;12.20;1.00;;;;;;5038247;28;20277;-78
2022/03/13 20:34:30;;;;;;;19.42;11.70;;;12.20;1.00;;;;;;5020473;28;20289;-79
2022/03/13 20:36:57;;;;;;;19.17;11.00;;;12.10;1.00;;;;;;5022502;28;20289;-78
2022/03/13 20:39:25;;;;;;;16.85;11.05;;;12.10;1.00;;;;;;5023227;28;20625;-78
2022/03/13 20:41:55;;;;;;;17.73;11.48;;;12.00;1.00;;;;;;5038363;28;20168;-78
2022/03/13 20:44:22;;;;;;;14.68;10.98;;;12.00;1.00;;;;;;5038143;28;20201;-78
2022/03/13 20:46:48;;;;;;;17.50;11.73;;;12.00;1.00;;;;;;5020364;28;20175;-78
2022/03/13 20:49:18;;;;;;;18.52;11.05;;;11.90;1.00;;;;;;5038228;28;20574;-78
2022/03/13 20:51:46;;;;;;;16.90;11.25;;;11.90;1.00;;;;;;5036816;28;20155;-75
2022/03/13 20:54:12;;;;;;;16.55;11.20;;;11.90;1.00;;;;;;5037359;28;20309;-77
2022/03/13 20:56:39;;;;;;;16.50;10.90;;;11.90;1.00;;;;;;5039531;28;20187;-78